Time,TemperatureF,DewpointF,PressureIn,WindDirection,WindDirectionDegrees,WindSpeedMPH,WindSpeedGustMPH,Humidity,HourlyPrecipIn,Conditions,Clouds,dailyrainin,SolarRadiationWatts/m^2,SoftwareType,DateUTC
2013-05-03 00:02:00,60.0,55.0,-100.00,NE,39,3.0,9.0,84,0.00,,,0.00,0.000000,,2013-05-03 04:02:00,
2013-05-03 00:32:00,60.0,55.0,-100.00,NE,39,3.0,9.0,84,0.00,,,0.00,0.000000,,2013-05-03 04:32:00,
2013-05-03 00:43:00,60.0,55.0,-100.00,NE,39,3.0,9.0,84,0.00,,,0.00,0.000000,,2013-05-03 04:43:00,
2013-05-03 00:53:00,60.0,55.0,-100.00,NE,39,3.0,9.0,84,0.00,,,0.00,0.000000,,2013-05-03 04:53:00,
2013-05-03 01:02:00,59.0,54.0,-100.00,NE,54,3.0,10.0,84,0.00,,,0.00,0.000000,,2013-05-03 05:02:00,
2013-05-03 01:22:00,59.0,54.0,-100.00,NE,54,3.0,10.0,84,0.00,,,0.00,0.000000,,2013-05-03 05:22:00,
2013-05-03 01:32:00,59.0,54.0,-100.00,NE,54,3.0,10.0,84,0.00,,,0.00,0.000000,,2013-05-03 05:32:00,
2013-05-03 01:42:00,59.0,54.0,-100.00,NE,54,3.0,10.0,84,0.00,,,0.00,0.000000,,2013-05-03 05:42:00,
2013-05-03 01:52:00,59.0,54.0,-100.00,NE,54,3.0,10.0,84,0.00,,,0.00,0.000000,,2013-05-03 05:52:00,
2013-05-03 02:32:00,57.0,56.0,-100.00,NNE,13,3.0,9.0,95,0.00,,,0.00,0.000000,,2013-05-03 06:32:00,
2013-05-03 02:42:00,57.0,56.0,-100.00,NNE,13,3.0,9.0,95,0.00,,,0.00,0.000000,,2013-05-03 06:42:00,
2013-05-03 02:52:00,57.0,56.0,-100.00,NNE,13,3.0,9.0,95,0.00,,,0.00,0.000000,,2013-05-03 06:52:00,
2013-05-03 03:01:00,57.0,56.0,-100.00,NNE,13,3.0,9.0,95,0.00,,,0.00,0.000000,,2013-05-03 07:01:00,
2013-05-03 03:02:00,57.0,56.0,-100.00,ENE,58,3.0,10.0,95,0.00,,,0.00,0.000000,,2013-05-03 07:02:00,
2013-05-03 03:22:00,57.0,56.0,-100.00,ENE,58,3.0,10.0,95,0.00,,,0.00,0.000000,,2013-05-03 07:22:00,
2013-05-03 03:32:00,57.0,56.0,-100.00,ENE,58,3.0,10.0,95,0.00,,,0.00,0.000000,,2013-05-03 07:32:00,
2013-05-03 03:42:00,57.0,56.0,-100.00,ENE,58,3.0,10.0,95,0.00,,,0.00,0.000000,,2013-05-03 07:42:00,
2013-05-03 03:52:00,57.0,56.0,-100.00,ENE,58,3.0,10.0,95,0.00,,,0.00,0.000000,,2013-05-03 07:52:00,
2013-05-03 04:22:00,57.0,56.0,-100.00,NE,56,3.0,9.0,96,0.00,,,0.00,0.000000,,2013-05-03 08:22:00,
2013-05-03 04:32:00,57.0,56.0,-100.00,NE,56,3.0,9.0,96,0.00,,,0.00,0.000000,,2013-05-03 08:32:00,
2013-05-03 04:42:00,57.0,56.0,-100.00,NE,56,3.0,9.0,96,0.00,,,0.00,0.000000,,2013-05-03 08:42:00,
2013-05-03 04:53:00,57.0,56.0,-100.00,NE,56,3.0,9.0,96,0.00,,,0.00,0.000000,,2013-05-03 08:53:00,
2013-05-03 05:01:00,57.0,56.0,-100.00,NE,56,3.0,9.0,96,0.00,,,0.00,0.000000,,2013-05-03 09:01:00,
2013-05-03 05:02:00,57.0,55.0,-100.00,ENE,71,3.0,11.0,94,0.00,,,0.00,0.000000,,2013-05-03 09:02:00,
2013-05-03 05:21:00,57.0,55.0,-100.00,ENE,71,3.0,11.0,94,0.00,,,0.00,0.000000,,2013-05-03 09:21:00,
2013-05-03 05:33:00,57.0,55.0,-100.00,ENE,71,3.0,11.0,94,0.00,,,0.00,0.000000,,2013-05-03 09:33:00,
2013-05-03 05:42:00,57.0,55.0,-100.00,ENE,71,3.0,11.0,94,0.00,,,0.00,0.000000,,2013-05-03 09:42:00,
2013-05-03 05:53:00,57.0,55.0,-100.00,ENE,71,3.0,11.0,94,0.00,,,0.00,0.000000,,2013-05-03 09:53:00,
2013-05-03 06:02:00,56.0,55.0,-100.00,NNE,13,3.0,10.0,96,0.00,,,0.00,0.000000,,2013-05-03 10:02:00,
2013-05-03 06:32:00,56.0,55.0,-100.00,NNE,13,3.0,10.0,96,0.00,,,0.00,0.000000,,2013-05-03 10:32:00,
2013-05-03 06:42:00,56.0,55.0,-100.00,NNE,13,3.0,10.0,96,0.00,,,0.00,0.000000,,2013-05-03 10:42:00,
2013-05-03 06:52:00,56.0,55.0,-100.00,NNE,13,3.0,10.0,96,0.00,,,0.00,0.000000,,2013-05-03 10:52:00,
2013-05-03 07:02:00,56.0,54.0,-100.00,NE,55,3.0,12.0,93,0.00,,,0.00,0.000000,,2013-05-03 11:02:00,
2013-05-03 07:32:00,56.0,54.0,-100.00,NE,55,3.0,12.0,93,0.00,,,0.00,0.000000,,2013-05-03 11:32:00,
2013-05-03 07:42:00,56.0,54.0,-100.00,NE,55,3.0,12.0,93,0.00,,,0.00,0.000000,,2013-05-03 11:42:00,
2013-05-03 07:52:00,56.0,54.0,-100.00,NE,55,3.0,12.0,93,0.00,,,0.00,0.000000,,2013-05-03 11:52:00,
2013-05-03 08:22:00,56.0,54.0,-100.00,East,84,3.0,11.0,94,0.00,,,0.00,2.000000,,2013-05-03 12:22:00,
2013-05-03 08:32:00,56.0,54.0,-100.00,East,84,3.0,11.0,94,0.00,,,0.00,2.000000,,2013-05-03 12:32:00,
2013-05-03 08:42:00,56.0,54.0,-100.00,East,84,3.0,11.0,94,0.00,,,0.00,2.000000,,2013-05-03 12:42:00,
2013-05-03 08:52:00,56.0,54.0,-100.00,East,84,3.0,11.0,94,0.00,,,0.00,2.000000,,2013-05-03 12:52:00,
2013-05-03 09:01:00,56.0,54.0,-100.00,East,84,3.0,11.0,94,0.00,,,0.00,2.000000,,2013-05-03 13:01:00,
2013-05-03 09:02:00,58.0,54.0,-100.00,East,84,4.0,11.0,86,0.00,,,0.00,36.000000,,2013-05-03 13:02:00,
2013-05-03 09:32:00,58.0,54.0,-100.00,East,84,4.0,11.0,86,0.00,,,0.00,36.000000,,2013-05-03 13:32:00,
2013-05-03 09:42:00,58.0,54.0,-100.00,East,84,4.0,11.0,86,0.00,,,0.00,36.000000,,2013-05-03 13:42:00,
2013-05-03 09:52:00,58.0,54.0,-100.00,East,84,4.0,11.0,86,0.00,,,0.00,36.000000,,2013-05-03 13:52:00,
2013-05-03 10:32:00,60.0,53.0,-100.00,NE,49,4.0,11.0,79,0.00,,,0.00,166.000000,,2013-05-03 14:32:00,
2013-05-03 10:42:00,60.0,53.0,-100.00,NE,49,4.0,11.0,79,0.00,,,0.00,166.000000,,2013-05-03 14:42:00,
2013-05-03 10:52:00,60.0,53.0,-100.00,NE,49,4.0,11.0,79,0.00,,,0.00,166.000000,,2013-05-03 14:52:00,
2013-05-03 11:01:00,60.0,53.0,-100.00,NE,49,4.0,11.0,79,0.00,,,0.00,166.000000,,2013-05-03 15:01:00,
2013-05-03 11:02:00,61.0,51.0,-100.00,ENE,76,6.0,12.0,69,0.00,,,0.00,315.000000,,2013-05-03 15:02:00,
2013-05-03 11:32:00,61.0,51.0,-100.00,ENE,76,6.0,12.0,69,0.00,,,0.00,315.000000,,2013-05-03 15:32:00,
2013-05-03 11:43:00,61.0,51.0,-100.00,ENE,76,6.0,12.0,69,0.00,,,0.00,315.000000,,2013-05-03 15:43:00,
2013-05-03 11:53:00,61.0,51.0,-100.00,ENE,76,6.0,12.0,69,0.00,,,0.00,315.000000,,2013-05-03 15:53:00,
2013-05-03 12:02:00,61.0,52.0,-100.00,NE,55,4.0,12.0,72,0.00,,,0.00,205.000000,,2013-05-03 16:02:00,
2013-05-03 12:33:00,61.0,52.0,-100.00,NE,55,4.0,12.0,72,0.00,,,0.00,205.000000,,2013-05-03 16:33:00,
2013-05-03 12:42:00,61.0,52.0,-100.00,NE,55,4.0,12.0,72,0.00,,,0.00,205.000000,,2013-05-03 16:42:00,
2013-05-03 12:52:00,61.0,52.0,-100.00,NE,55,4.0,12.0,72,0.00,,,0.00,205.000000,,2013-05-03 16:52:00,
2013-05-03 13:23:00,59.0,55.0,-100.00,SSE,168,4.0,12.0,87,0.01,,,0.01,174.000000,,2013-05-03 17:23:00,
2013-05-03 13:32:00,59.0,55.0,-100.00,SSE,168,4.0,12.0,87,0.01,,,0.01,174.000000,,2013-05-03 17:32:00,
2013-05-03 13:42:00,59.0,55.0,-100.00,SSE,168,4.0,12.0,87,0.01,,,0.01,174.000000,,2013-05-03 17:42:00,
2013-05-03 13:52:00,59.0,55.0,-100.00,SSE,168,4.0,12.0,87,0.01,,,0.01,174.000000,,2013-05-03 17:52:00,
2013-05-03 14:01:00,59.0,55.0,-100.00,SSE,168,4.0,12.0,87,0.01,,,0.01,174.000000,,2013-05-03 18:01:00,
2013-05-03 14:32:00,58.0,57.0,-100.00,NW,318,3.0,9.0,95,0.04,,,0.05,152.000000,,2013-05-03 18:32:00,
2013-05-03 14:42:00,58.0,57.0,-100.00,NW,318,3.0,9.0,95,0.04,,,0.05,152.000000,,2013-05-03 18:42:00,
2013-05-03 14:52:00,58.0,57.0,-100.00,NW,318,3.0,9.0,95,0.04,,,0.05,152.000000,,2013-05-03 18:52:00,
2013-05-03 15:01:00,58.0,57.0,-100.00,NW,318,3.0,9.0,95,0.04,,,0.05,152.000000,,2013-05-03 19:01:00,
2013-05-03 15:02:00,58.0,57.0,-100.00,East,81,3.0,8.0,95,0.01,,,0.06,138.000000,,2013-05-03 19:02:00,
2013-05-03 15:32:00,58.0,57.0,-100.00,East,81,3.0,8.0,95,0.01,,,0.06,138.000000,,2013-05-03 19:32:00,
2013-05-03 15:42:00,58.0,57.0,-100.00,East,81,3.0,8.0,95,0.01,,,0.06,138.000000,,2013-05-03 19:42:00,
2013-05-03 15:52:00,58.0,57.0,-100.00,East,81,3.0,8.0,95,0.01,,,0.06,138.000000,,2013-05-03 19:52:00,
2013-05-03 16:32:00,60.0,57.0,-100.00,ENE,69,4.0,9.0,90,0.01,,,0.07,201.000000,,2013-05-03 20:32:00,
2013-05-03 16:42:00,60.0,57.0,-100.00,ENE,69,4.0,9.0,90,0.01,,,0.07,201.000000,,2013-05-03 20:42:00,
2013-05-03 16:52:00,60.0,57.0,-100.00,ENE,69,4.0,9.0,90,0.01,,,0.07,201.000000,,2013-05-03 20:52:00,
2013-05-03 17:01:00,60.0,57.0,-100.00,ENE,69,4.0,9.0,90,0.01,,,0.07,201.000000,,2013-05-03 21:01:00,
2013-05-03 17:02:00,58.0,56.0,-100.00,East,99,4.0,13.0,92,0.00,,,0.07,89.000000,,2013-05-03 21:02:00,
2013-05-03 17:33:00,58.0,56.0,-100.00,East,99,4.0,13.0,92,0.00,,,0.07,89.000000,,2013-05-03 21:33:00,
2013-05-03 17:43:00,58.0,56.0,-100.00,East,99,4.0,13.0,92,0.00,,,0.07,89.000000,,2013-05-03 21:43:00,
2013-05-03 17:53:00,58.0,56.0,-100.00,East,99,4.0,13.0,92,0.00,,,0.07,89.000000,,2013-05-03 21:53:00,
2013-05-03 20:32:00,57.0,56.0,-100.00,East,87,4.0,11.0,96,-99.99,,,0.08,11.000000,,2013-05-04 00:32:00,
2013-05-03 20:42:00,57.0,56.0,-100.00,East,87,4.0,11.0,96,-99.99,,,0.08,11.000000,,2013-05-04 00:42:00,
2013-05-03 20:52:00,57.0,56.0,-100.00,East,87,4.0,11.0,96,-99.99,,,0.08,11.000000,,2013-05-04 00:52:00,
2013-05-03 21:01:00,57.0,56.0,-100.00,East,87,4.0,11.0,96,-99.99,,,0.08,11.000000,,2013-05-04 01:01:00,
2013-05-03 21:02:00,57.0,56.0,-100.00,ESE,114,4.0,15.0,95,0.01,,,0.09,0.000000,,2013-05-04 01:02:00,
2013-05-03 21:32:00,57.0,56.0,-100.00,ESE,114,4.0,15.0,95,0.01,,,0.09,0.000000,,2013-05-04 01:32:00,
2013-05-03 21:42:00,57.0,56.0,-100.00,ESE,114,4.0,15.0,95,0.01,,,0.09,0.000000,,2013-05-04 01:42:00,
2013-05-03 21:52:00,57.0,56.0,-100.00,ESE,114,4.0,15.0,95,0.01,,,0.09,0.000000,,2013-05-04 01:52:00,
2013-05-03 22:02:00,57.0,55.0,-100.00,SE,129,4.0,12.0,92,0.00,,,0.09,0.000000,,2013-05-04 02:02:00,
2013-05-03 22:21:00,57.0,55.0,-100.00,SE,129,4.0,12.0,92,0.00,,,0.09,0.000000,,2013-05-04 02:21:00,
2013-05-03 22:32:00,57.0,55.0,-100.00,SE,129,4.0,12.0,92,0.00,,,0.09,0.000000,,2013-05-04 02:32:00,
2013-05-03 22:42:00,57.0,55.0,-100.00,SE,129,4.0,12.0,92,0.00,,,0.09,0.000000,,2013-05-04 02:42:00,
2013-05-03 22:52:00,57.0,55.0,-100.00,SE,129,4.0,12.0,92,0.00,,,0.09,0.000000,,2013-05-04 02:52:00,
2013-05-03 23:02:00,57.0,55.0,-100.00,SE,131,4.0,14.0,92,0.00,,,0.09,0.000000,,2013-05-04 03:02:00,
2013-05-03 23:22:00,57.0,55.0,-100.00,SE,131,4.0,14.0,92,0.00,,,0.09,0.000000,,2013-05-04 03:22:00,
2013-05-03 23:33:00,57.0,55.0,-100.00,SE,131,4.0,14.0,92,0.00,,,0.09,0.000000,,2013-05-04 03:33:00,
2013-05-03 23:43:00,57.0,55.0,-100.00,SE,131,4.0,14.0,92,0.00,,,0.09,0.000000,,2013-05-04 03:43:00,
2013-05-03 23:53:00,57.0,55.0,-100.00,SE,131,4.0,14.0,92,0.00,,,0.09,0.000000,,2013-05-04 03:53:00,